Time;durP1;ratioP1;P1;durP2;ratioP2;P2;SDS_P1;SDS_P2;PMS_P1;PMS_P2;Temp;Humidity;BMP_temperature;BMP_pressure;BME280_temperature;BME280_humidity;BME280_pressure;Samples;Min_cycle;Max_cycle;Signal;HPM_P1;HPM_P2
2023/09/23 00:00:55;;;;;;;0.80;0.43;;;;;;;21.43;47.80;99407.88;4958732;28;20454;-74
2023/09/23 00:03:24;;;;;;;2.15;0.50;;;;;;;21.38;48.02;99405.53;4969328;28;20063;-74
2023/09/23 00:05:51;;;;;;;0.98;0.47;;;;;;;21.34;48.21;99406.66;4956170;29;20496;-75
2023/09/23 00:08:18;;;;;;;1.83;0.52;;;;;;;21.33;48.17;99410.28;4956885;28;20035;-75
2023/09/23 00:10:44;;;;;;;2.40;0.60;;;;;;;21.28;48.14;99407.06;4956618;29;20051;-75
2023/09/23 00:13:10;;;;;;;1.83;0.60;;;;;;;21.26;48.21;99399.19;4956735;28;20054;-74
2023/09/23 00:15:40;;;;;;;1.42;0.43;;;;;;;21.27;48.40;99405.34;4956544;29;20058;-74
2023/09/23 00:18:06;;;;;;;2.30;0.60;;;;;;;21.27;48.49;99402.69;4956478;28;20079;-74
2023/09/23 00:20:32;;;;;;;1.95;0.52;;;;;;;21.25;48.38;99396.66;4956309;29;20479;-74
2023/09/23 00:22:58;;;;;;;1.05;0.30;;;;;;;21.24;48.55;99405.53;4956639;29;20031;-74
2023/09/23 00:25:24;;;;;;;0.98;0.50;;;;;;;21.25;48.58;99407.25;4956420;29;20390;-74
2023/09/23 00:27:49;;;;;;;2.08;0.50;;;;;;;21.25;48.28;99407.25;4955904;29;20046;-75
2023/09/23 00:30:15;;;;;;;1.70;0.60;;;;;;;21.25;48.63;99409.91;4956577;28;20098;-74
2023/09/23 00:32:44;;;;;;;1.45;0.50;;;;;;;21.23;48.56;99409.16;4956487;29;20361;-74
2023/09/23 00:35:11;;;;;;;1.42;0.50;;;;;;;21.24;48.37;99410.84;4955933;28;20706;-75
2023/09/23 00:37:38;;;;;;;1.83;0.50;;;;;;;21.24;48.34;99413.50;4957017;28;20508;-74
2023/09/23 00:40:05;;;;;;;2.00;0.57;;;;;;;21.22;48.46;99415.41;4956601;28;20023;-74
2023/09/23 00:42:30;;;;;;;1.40;0.50;;;;;;;21.21;48.50;99411.06;4938485;28;20038;-74
2023/09/23 00:44:55;;;;;;;1.05;0.52;;;;;;;21.21;48.53;99416.34;4954908;29;20399;-75
2023/09/23 00:47:21;;;;;;;1.75;0.60;;;;;;;21.22;48.62;99412.75;4955968;29;20082;-74
2023/09/23 00:49:47;;;;;;;1.00;0.38;;;;;;;21.22;48.65;99413.63;4955716;29;20034;-74
2023/09/23 00:52:14;;;;;;;1.27;0.40;;;;;;;21.23;48.63;99425.06;4955868;29;20103;-74
2023/09/23 00:54:41;;;;;;;1.13;0.52;;;;;;;21.26;48.69;99419.56;4956027;29;20019;-75
2023/09/23 00:57:07;;;;;;;2.30;0.70;;;;;;;21.22;48.41;99416.28;4955854;29;20035;-74
2023/09/23 00:59:35;;;;;;;1.35;0.63;;;;;;;21.25;48.63;99428.50;4955993;29;20025;-75
2023/09/23 01:02:02;;;;;;;2.83;0.70;;;;;;;21.21;48.51;99426.97;4955686;29;20039;-74
2023/09/23 01:04:28;;;;;;;2.15;0.65;;;;;;;21.23;48.51;99419.75;4955204;28;20026;-74
2023/09/23 01:06:53;;;;;;;1.25;0.60;;;;;;;21.18;48.72;99423.56;4955554;29;20023;-74
2023/09/23 01:09:21;;;;;;;1.17;0.40;;;;;;;21.16;48.75;99420.16;4970573;28;20460;-74
2023/09/23 01:11:49;;;;;;;2.63;0.55;;;;;;;21.17;48.58;99416.53;4974802;28;20027;-75
2023/09/23 01:14:15;;;;;;;2.42;0.60;;;;;;;21.14;48.66;99427.34;4974669;28;20022;-74
2023/09/23 01:16:41;;;;;;;1.45;0.60;;;;;;;21.16;48.55;99414.84;4974731;28;20380;-74
2023/09/23 01:19:06;;;;;;;0.98;0.40;;;;;;;21.14;48.73;99405.25;4974368;28;20031;-74
2023/09/23 01:21:33;;;;;;;1.40;0.57;;;;;;;21.12;48.61;99409.81;4974671;28;20446;-74
2023/09/23 01:23:58;;;;;;;2.53;0.60;;;;;;;21.12;48.75;99415.13;4956961;28;20053;-75
2023/09/23 01:26:24;;;;;;;1.65;0.47;;;;;;;21.10;48.89;99412.56;4974411;28;20105;-74
2023/09/23 01:28:49;;;;;;;1.85;0.45;;;;;;;21.09;48.96;99416.19;4974618;28;20034;-74
2023/09/23 01:31:15;;;;;;;1.67;0.57;;;;;;;21.08;48.70;99417.13;4974491;28;20078;-74
2023/09/23 01:33:40;;;;;;;1.20;0.50;;;;;;;21.08;48.94;99422.44;4974093;28;20392;-74
2023/09/23 01:36:06;;;;;;;1.63;0.47;;;;;;;21.08;48.71;99425.09;4962677;28;20047;-75
2023/09/23 01:38:32;;;;;;;1.13;0.47;;;;;;;21.11;48.71;99422.22;4955024;28;20031;-74
2023/09/23 01:41:01;;;;;;;1.92;0.50;;;;;;;21.07;48.86;99426.03;4937647;29;20074;-74
2023/09/23 01:43:27;;;;;;;1.13;0.35;;;;;;;21.03;48.86;99425.34;4955090;29;20060;-74
2023/09/23 01:45:55;;;;;;;1.25;0.35;;;;;;;21.02;49.23;99423.66;4954848;29;20487;-75
2023/09/23 01:48:21;;;;;;;1.48;0.40;;;;;;;21.03;48.96;99429.81;4954735;29;20023;-74
2023/09/23 01:50:47;;;;;;;1.17;0.60;;;;;;;21.02;49.09;99433.44;4966462;28;20105;-74
2023/09/23 01:53:21;;;;;;;1.38;0.50;;;;;;;21.00;49.17;99432.66;4954781;29;20051;-75
2023/09/23 01:55:47;;;;;;;2.08;0.50;;;;;;;21.04;49.07;99436.81;4954493;28;20460;-74
2023/09/23 01:58:14;;;;;;;2.38;0.52;;;;;;;21.08;48.91;99427.75;4954680;29;20119;-74
2023/09/23 02:00:39;;;;;;;1.85;0.57;;;;;;;21.08;48.92;99429.53;4954905;29;20378;-74
2023/09/23 02:03:05;;;;;;;1.65;0.57;;;;;;;21.11;48.66;99430.19;4953866;29;20034;-74
2023/09/23 02:05:30;;;;;;;1.70;0.57;;;;;;;21.11;48.70;99430.19;4953123;29;20028;-75
2023/09/23 02:07:56;;;;;;;1.10;0.68;;;;;;;21.07;48.90;99431.34;4954504;28;20066;-74
2023/09/23 02:10:24;;;;;;;1.15;0.40;;;;;;;21.08;48.87;99435.69;4954615;29;20062;-74
2023/09/23 02:12:50;;;;;;;2.05;0.50;;;;;;;21.08;48.96;99438.34;4954548;28;20027;-74
2023/09/23 02:15:16;;;;;;;1.20;0.43;;;;;;;21.05;48.88;99443.84;4954529;29;20034;-74
2023/09/23 02:17:45;;;;;;;2.72;0.73;;;;;;;21.04;48.89;99443.00;4954142;28;20031;-74
2023/09/23 02:20:17;;;;;;;1.88;0.40;;;;;;;21.04;48.84;99442.13;4954421;28;20031;-74
2023/09/23 02:22:43;;;;;;;1.73;0.50;;;;;;;21.02;49.08;99444.88;4954425;28;20023;-75
2023/09/23 02:25:12;;;;;;;1.67;0.60;;;;;;;21.00;48.83;99443.25;4954350;28;20476;-74
2023/09/23 02:27:38;;;;;;;1.40;0.45;;;;;;;21.00;48.98;99436.16;4954407;28;20049;-74
2023/09/23 02:30:09;;;;;;;1.30;0.55;;;;;;;21.01;48.98;99442.34;4972632;28;20034;-74
2023/09/23 02:32:43;;;;;;;1.05;0.30;;;;;;;20.99;49.11;99444.22;4973175;28;20022;-74
2023/09/23 02:35:13;;;;;;;2.00;0.70;;;;;;;20.99;49.10;99444.22;4969818;28;20031;-74
2023/09/23 02:37:40;;;;;;;1.52;0.40;;;;;;;20.97;48.91;99446.13;4953740;29;20429;-74
2023/09/23 02:40:11;;;;;;;1.15;0.55;;;;;;;20.98;48.80;99439.84;4954112;28;20055;-74
2023/09/23 02:42:41;;;;;;;1.65;0.47;;;;;;;20.99;49.04;99439.78;4936931;29;20031;-74
2023/09/23 02:45:09;;;;;;;2.17;0.70;;;;;;;20.95;49.00;99437.38;4954146;29;20027;-74
2023/09/23 02:47:36;;;;;;;1.67;0.60;;;;;;;20.93;49.37;99442.81;4953721;29;20038;-74
2023/09/23 02:50:03;;;;;;;1.80;0.50;;;;;;;20.93;49.26;99441.00;4954061;29;20031;-74
2023/09/23 02:52:28;;;;;;;1.35;0.70;;;;;;;20.92;49.00;99439.28;4953891;29;20118;-74
2023/09/23 02:54:54;;;;;;;2.13;0.45;;;;;;;20.92;49.16;99443.75;4954022;29;20523;-74
2023/09/23 02:57:20;;;;;;;1.60;0.47;;;;;;;20.89;49.17;99444.78;4953902;29;20156;-74
2023/09/23 02:59:48;;;;;;;1.85;0.52;;;;;;;20.88;49.09;99448.38;4953915;29;20031;-74
2023/09/23 03:02:20;;;;;;;1.25;0.57;;;;;;;20.91;49.01;99450.84;4953585;29;20030;-75
2023/09/23 03:04:45;;;;;;;1.23;0.60;;;;;;;20.89;49.23;99447.44;4953668;29;20113;-74
2023/09/23 03:07:12;;;;;;;2.17;0.70;;;;;;;20.88;49.24;99458.13;4938383;29;20086;-74
2023/09/23 03:09:43;;;;;;;2.35;0.63;;;;;;;20.88;49.34;99458.13;4940450;29;20026;-74
2023/09/23 03:12:09;;;;;;;1.00;0.40;;;;;;;20.84;49.43;99457.44;4947067;29;20023;-74
2023/09/23 03:14:40;;;;;;;1.65;0.50;;;;;;;20.84;49.15;99457.44;4959744;28;20101;-74
2023/09/23 03:17:07;;;;;;;2.53;0.50;;;;;;;20.83;49.26;99461.03;4960695;28;20074;-74
2023/09/23 03:19:33;;;;;;;1.75;0.40;;;;;;;20.86;49.26;99460.88;4957679;29;20031;-75
2023/09/23 03:22:00;;;;;;;1.00;0.40;;;;;;;20.85;49.39;99464.47;4957628;29;20373;-74
2023/09/23 03:24:28;;;;;;;1.67;0.50;;;;;;;20.87;49.26;99462.59;4957334;29;20110;-74
2023/09/23 03:26:55;;;;;;;1.40;0.40;;;;;;;20.84;49.11;99462.75;4957449;29;20046;-74
2023/09/23 03:29:22;;;;;;;1.77;0.40;;;;;;;20.79;49.24;99459.53;4957103;29;20034;-74
2023/09/23 03:31:51;;;;;;;1.67;0.50;;;;;;;20.80;49.39;99463.88;4957484;29;20106;-74
2023/09/23 03:34:17;;;;;;;2.28;0.50;;;;;;;20.78;49.52;99463.94;4955955;28;20031;-75
2023/09/23 03:36:42;;;;;;;1.50;0.50;;;;;;;20.79;49.30;99464.81;4957421;28;20077;-74
2023/09/23 03:39:09;;;;;;;3.28;0.88;;;;;;;20.77;49.26;99461.38;4957219;28;20047;-74
2023/09/23 03:41:37;;;;;;;1.30;0.50;;;;;;;20.76;49.33;99459.69;4957095;29;20031;-74
2023/09/23 03:44:07;;;;;;;2.45;0.50;;;;;;;20.78;49.37;99458.66;4957029;29;20055;-74
2023/09/23 03:46:33;;;;;;;0.93;0.40;;;;;;;20.74;49.42;99456.28;4957142;29;20050;-74
2023/09/23 03:49:00;;;;;;;2.28;0.50;;;;;;;20.75;49.30;99458.84;4957274;29;20094;-74
2023/09/23 03:51:26;;;;;;;1.23;0.25;;;;;;;20.76;49.20;99468.50;4972975;28;20445;-74
2023/09/23 03:53:51;;;;;;;1.98;0.43;;;;;;;20.79;49.23;99470.13;4959336;28;20066;-75
2023/09/23 03:56:19;;;;;;;2.15;0.40;;;;;;;20.76;49.23;99470.28;4976263;28;20027;-74
2023/09/23 03:58:44;;;;;;;2.25;0.40;;;;;;;20.83;49.29;99469.00;4975980;28;20027;-74
2023/09/23 04:01:13;;;;;;;1.50;0.43;;;;;;;20.81;49.23;99467.38;4957010;28;20439;-74
2023/09/23 04:03:39;;;;;;;1.58;0.40;;;;;;;20.78;49.30;99471.06;4956946;28;20019;-74
2023/09/23 04:06:05;;;;;;;1.30;0.47;;;;;;;20.76;49.17;99470.28;4956475;29;20035;-74
2023/09/23 04:08:31;;;;;;;1.42;0.60;;;;;;;20.75;49.46;99474.75;4971969;28;20047;-74
2023/09/23 04:11:04;;;;;;;0.98;0.50;;;;;;;20.74;49.38;99466.91;4976084;28;20035;-74
2023/09/23 04:13:30;;;;;;;1.55;0.47;;;;;;;20.72;49.22;99474.94;4975576;28;20472;-74
2023/09/23 04:16:00;;;;;;;1.17;0.45;;;;;;;20.69;49.46;99475.13;4975816;28;20114;-74
2023/09/23 04:18:30;;;;;;;1.83;0.57;;;;;;;20.69;49.52;99480.44;4944195;29;20031;-74
2023/09/23 04:20:56;;;;;;;1.90;0.50;;;;;;;20.66;49.33;99481.47;4956614;28;20037;-74
2023/09/23 04:23:22;;;;;;;1.90;0.50;;;;;;;20.71;49.34;99472.38;4958857;28;20102;-74
2023/09/23 04:25:51;;;;;;;1.83;0.80;;;;;;;20.72;49.32;99474.09;4956444;29;20023;-74
2023/09/23 04:28:17;;;;;;;2.38;0.57;;;;;;;20.73;49.26;99475.81;4968712;28;20026;-74
2023/09/23 04:30:42;;;;;;;1.30;0.63;;;;;;;20.75;49.33;99479.19;4975770;28;20026;-74
2023/09/23 04:33:08;;;;;;;2.55;0.70;;;;;;;20.74;49.23;99480.16;4975701;28;20059;-74
2023/09/23 04:35:34;;;;;;;2.00;0.68;;;;;;;20.73;49.26;99486.41;4975241;28;20034;-74
2023/09/23 04:38:00;;;;;;;1.27;0.57;;;;;;;20.71;49.46;99485.63;4965039;28;20575;-74
2023/09/23 04:40:26;;;;;;;2.45;0.68;;;;;;;20.64;49.57;99486.00;4956133;29;20028;-74
2023/09/23 04:42:51;;;;;;;1.95;0.60;;;;;;;20.65;49.32;99490.38;4955701;29;20034;-74
2023/09/23 04:45:20;;;;;;;1.75;0.70;;;;;;;20.65;49.47;99490.38;4946120;29;20031;-74
2023/09/23 04:47:50;;;;;;;2.03;0.70;;;;;;;20.65;49.47;99494.81;4964239;28;20023;-74
2023/09/23 04:50:17;;;;;;;1.08;0.50;;;;;;;20.63;49.29;99492.25;4975349;28;20677;-74
2023/09/23 04:52:44;;;;;;;1.35;0.50;;;;;;;20.58;49.37;99493.47;4955348;28;20015;-74
2023/09/23 04:55:10;;;;;;;0.60;0.40;;;;;;;20.57;49.41;99497.91;4936594;29;20036;-74
2023/09/23 04:57:36;;;;;;;1.77;0.52;;;;;;;20.56;49.46;99496.19;4949584;28;20031;-74
2023/09/23 05:00:04;;;;;;;2.20;0.70;;;;;;;20.54;49.61;99511.34;4975222;28;20072;-74
2023/09/23 05:02:30;;;;;;;1.27;0.52;;;;;;;20.53;49.55;99499.03;4975235;28;20098;-73
2023/09/23 05:04:55;;;;;;;1.98;0.60;;;;;;;20.57;49.46;99505.84;4970094;28;20068;-73
2023/09/23 05:07:23;;;;;;;1.55;0.50;;;;;;;20.55;49.44;99509.53;4959984;28;20232;-74
2023/09/23 05:09:49;;;;;;;0.73;0.40;;;;;;;20.53;49.64;99512.28;4974864;28;20030;-75
2023/09/23 05:12:14;;;;;;;1.55;0.35;;;;;;;20.51;49.36;99515.03;4974605;28;20038;-74
2023/09/23 05:14:40;;;;;;;2.28;0.45;;;;;;;20.51;49.55;99516.81;4968560;28;20031;-74
2023/09/23 05:17:05;;;;;;;0.85;0.30;;;;;;;20.49;49.70;99521.38;4957685;28;20488;-74
2023/09/23 05:19:34;;;;;;;1.00;0.40;;;;;;;20.50;49.44;99531.03;4974658;28;20030;-73
2023/09/23 05:22:00;;;;;;;1.20;0.50;;;;;;;20.50;49.60;99528.38;4973836;28;20023;-74
2023/09/23 05:24:29;;;;;;;1.75;0.57;;;;;;;20.49;49.61;99531.97;4955226;29;20532;-74
2023/09/23 05:26:55;;;;;;;1.20;0.40;;;;;;;20.48;49.70;99535.56;4955700;28;20566;-74
2023/09/23 05:29:23;;;;;;;2.72;0.60;;;;;;;20.54;49.54;99535.22;4973901;28;20027;-74
2023/09/23 05:31:49;;;;;;;1.38;0.57;;;;;;;20.54;49.37;99537.88;4974457;28;20031;-75
2023/09/23 05:34:15;;;;;;;1.77;0.50;;;;;;;20.54;49.34;99537.88;4974258;28;20023;-74
2023/09/23 05:36:41;;;;;;;1.65;0.40;;;;;;;20.51;49.60;99545.97;4967975;28;20057;-74
2023/09/23 05:39:06;;;;;;;2.08;0.38;;;;;;;20.51;49.26;99545.97;4962316;28;20081;-74
2023/09/23 05:41:32;;;;;;;1.95;0.60;;;;;;;20.55;49.46;99558.13;4954626;29;20031;-74
2023/09/23 05:43:59;;;;;;;1.83;0.50;;;;;;;20.54;49.34;99556.41;4955207;29;20035;-74
2023/09/23 05:46:25;;;;;;;1.30;0.55;;;;;;;20.49;49.56;99561.13;4954827;29;20034;-74
2023/09/23 05:48:51;;;;;;;1.45;0.50;;;;;;;20.47;49.57;99570.94;4970886;28;20027;-74
2023/09/23 05:51:16;;;;;;;1.60;0.40;;;;;;;20.48;49.43;99570.03;4974307;28;20045;-74
2023/09/23 05:53:42;;;;;;;4.00;0.80;;;;;;;20.47;49.62;99566.50;4973957;28;20106;-74
2023/09/23 05:56:08;;;;;;;2.35;0.45;;;;;;;20.47;49.69;99577.13;4973866;28;20511;-74
2023/09/23 05:58:34;;;;;;;1.00;0.40;;;;;;;20.44;49.59;99571.97;4943048;29;20035;-74
2023/09/23 06:00:59;;;;;;;1.30;0.50;;;;;;;20.45;49.63;99578.13;4954804;29;20035;-74
2023/09/23 06:03:25;;;;;;;1.73;0.50;;;;;;;20.47;49.52;99576.25;4954574;29;20484;-74
2023/09/23 06:05:50;;;;;;;2.53;0.60;;;;;;;20.42;49.49;99579.16;4954377;29;20031;-74
2023/09/23 06:08:15;;;;;;;2.03;0.40;;;;;;;20.42;49.46;99579.16;4958561;28;20046;-75
2023/09/23 06:10:41;;;;;;;0.93;0.32;;;;;;;20.44;49.52;99582.56;4953966;29;20027;-75
2023/09/23 06:13:07;;;;;;;1.42;0.50;;;;;;;20.47;49.45;99586.84;4937200;28;20032;-74
2023/09/23 06:15:33;;;;;;;0.88;0.30;;;;;;;20.46;49.43;99590.44;4954431;29;20031;-74
2023/09/23 06:17:59;;;;;;;1.00;0.35;;;;;;;20.42;49.57;99592.41;4937294;29;20043;-74
2023/09/23 06:20:24;;;;;;;1.52;0.40;;;;;;;20.41;49.76;99587.19;4956870;28;20037;-73
2023/09/23 06:22:50;;;;;;;1.88;0.50;;;;;;;20.41;49.69;99582.75;4961001;28;20035;-73
2023/09/23 06:25:15;;;;;;;1.30;0.30;;;;;;;20.45;49.44;99588.75;4954028;29;20028;-73
2023/09/23 06:27:42;;;;;;;1.02;0.40;;;;;;;20.44;49.56;99598.47;4954207;29;20035;-75
2023/09/23 06:30:08;;;;;;;1.30;0.57;;;;;;;20.48;49.38;99599.19;4954377;28;20038;-75
2023/09/23 06:32:34;;;;;;;2.20;0.63;;;;;;;20.47;49.57;99613.34;4953975;29;20527;-74
2023/09/23 06:34:59;;;;;;;2.58;0.40;;;;;;;20.45;49.54;99615.25;4953977;29;20115;-74
2023/09/23 06:37:25;;;;;;;1.42;0.38;;;;;;;20.44;49.37;99617.03;4956384;28;20477;-74
2023/09/23 06:39:50;;;;;;;1.42;0.55;;;;;;;20.45;49.54;99623.19;4956746;28;20034;-74
2023/09/23 06:42:16;;;;;;;2.35;0.50;;;;;;;20.43;49.38;99619.78;4954075;29;20034;-74
2023/09/23 06:44:42;;;;;;;1.30;0.60;;;;;;;20.43;49.59;99625.09;4952702;28;20110;-74
2023/09/23 06:47:08;;;;;;;1.00;0.50;;;;;;;20.44;49.59;99629.44;4953754;29;20042;-74
2023/09/23 06:49:34;;;;;;;1.58;0.45;;;;;;;20.47;49.52;99623.97;4954169;29;20035;-74
2023/09/23 06:51:59;;;;;;;1.65;0.50;;;;;;;20.47;49.32;99634.56;4936537;29;20103;-74
2023/09/23 06:54:25;;;;;;;1.23;0.45;;;;;;;20.47;49.41;99650.47;4953943;29;20038;-74
2023/09/23 06:56:53;;;;;;;1.48;0.45;;;;;;;20.46;49.28;99654.06;4954039;29;20503;-74
2023/09/23 06:59:18;;;;;;;1.63;0.40;;;;;;;20.48;49.55;99654.84;4953870;29;20094;-74
2023/09/23 07:01:44;;;;;;;1.17;0.45;;;;;;;20.48;49.48;99657.50;4936579;29;20407;-74
2023/09/23 07:04:09;;;;;;;1.35;0.43;;;;;;;20.50;49.23;99660.91;4953884;29;20027;-74
2023/09/23 07:06:35;;;;;;;0.73;0.40;;;;;;;20.51;49.23;99659.97;4953208;29;20101;-74
2023/09/23 07:09:00;;;;;;;1.17;0.35;;;;;;;20.49;49.29;99659.19;4957395;28;20640;-74
2023/09/23 07:11:26;;;;;;;1.15;0.35;;;;;;;20.52;49.07;99664.31;4973029;28;20027;-74
2023/09/23 07:13:51;;;;;;;0.85;0.40;;;;;;;20.53;49.28;99655.41;4973123;28;20022;-74
2023/09/23 07:16:17;;;;;;;1.05;0.50;;;;;;;20.54;49.40;99667.75;4955704;28;20023;-74
2023/09/23 07:18:44;;;;;;;0.95;0.35;;;;;;;20.56;49.31;99665.00;4973194;28;20030;-74
2023/09/23 07:21:09;;;;;;;0.85;0.40;;;;;;;20.54;49.11;99670.41;4952932;28;20027;-74
2023/09/23 07:23:35;;;;;;;1.65;0.65;;;;;;;20.54;49.08;99667.75;4953841;29;20023;-74
2023/09/23 07:26:02;;;;;;;1.20;0.40;;;;;;;20.54;49.21;99678.38;4964159;28;20542;-74
2023/09/23 07:28:28;;;;;;;1.27;0.35;;;;;;;20.52;49.25;99680.22;4955828;28;20109;-74
2023/09/23 07:30:54;;;;;;;2.03;0.35;;;;;;;20.53;49.44;99674.84;4966572;28;20159;-74
2023/09/23 07:33:19;;;;;;;1.25;0.40;;;;;;;20.55;49.20;99677.41;4953804;29;20034;-74
2023/09/23 07:35:44;;;;;;;1.95;0.65;;;;;;;20.52;49.23;99667.84;4953263;29;20146;-74
2023/09/23 07:38:10;;;;;;;1.50;0.57;;;;;;;20.52;49.28;99680.22;4953607;28;20104;-74
2023/09/23 07:40:39;;;;;;;1.10;0.40;;;;;;;20.55;49.40;99680.06;4953657;29;20068;-74
2023/09/23 07:43:05;;;;;;;3.25;0.40;;;;;;;20.52;49.40;99680.22;4953557;28;20147;-74
2023/09/23 07:45:30;;;;;;;1.65;0.43;;;;;;;20.56;49.37;99679.13;4954711;28;20110;-74
2023/09/23 07:47:56;;;;;;;1.30;0.50;;;;;;;20.55;49.30;99689.81;4953575;29;20178;-74
2023/09/23 07:50:22;;;;;;;1.63;0.40;;;;;;;20.57;49.29;99696.72;4953143;29;20243;-74
2023/09/23 07:52:47;;;;;;;1.13;0.50;;;;;;;20.60;49.14;99693.94;4954432;28;20399;-75
2023/09/23 07:55:13;;;;;;;2.10;0.60;;;;;;;20.60;49.24;99703.66;4956863;29;20027;-74
2023/09/23 07:57:39;;;;;;;1.00;0.30;;;;;;;20.60;49.15;99704.53;4957101;29;20641;-74
2023/09/23 08:00:09;;;;;;;2.25;0.57;;;;;;;20.59;49.23;99708.09;4957048;29;20035;-74
2023/09/23 08:02:35;;;;;;;2.25;0.50;;;;;;;20.60;49.13;99706.31;4966474;28;20027;-74
2023/09/23 08:05:03;;;;;;;2.08;0.70;;;;;;;20.60;49.17;99716.91;4967202;28;20030;-74
2023/09/23 08:07:32;;;;;;;2.17;0.60;;;;;;;20.62;49.27;99723.84;4956812;28;20038;-74
2023/09/23 08:09:58;;;;;;;0.85;0.60;;;;;;;20.59;49.24;99713.41;4956851;29;20439;-75
2023/09/23 08:12:24;;;;;;;1.90;0.47;;;;;;;20.62;49.27;99723.84;4956630;29;20042;-74
2023/09/23 08:14:51;;;;;;;0.57;0.20;;;;;;;20.63;49.12;99724.72;4956707;28;20031;-74
2023/09/23 08:17:17;;;;;;;2.17;0.63;;;;;;;20.62;49.19;99722.97;4956790;29;20102;-74
2023/09/23 08:19:43;;;;;;;0.73;0.32;;;;;;;20.68;48.89;99727.09;4961745;28;20031;-74
2023/09/23 08:22:09;;;;;;;1.30;0.52;;;;;;;20.63;49.13;99730.03;4975818;28;20058;-73
2023/09/23 08:24:35;;;;;;;2.25;0.40;;;;;;;20.68;49.04;99732.41;4975916;28;20145;-74
2023/09/23 08:27:05;;;;;;;1.42;0.43;;;;;;;20.68;49.02;99737.72;4975724;28;20031;-74
2023/09/23 08:29:30;;;;;;;1.17;0.40;;;;;;;20.68;49.16;99740.38;4975802;28;20030;-74
2023/09/23 08:31:56;;;;;;;0.95;0.43;;;;;;;20.69;49.12;99745.59;4958279;28;20484;-74
2023/09/23 08:34:21;;;;;;;0.93;0.50;;;;;;;20.67;49.06;99744.78;4975258;28;20479;-74
2023/09/23 08:36:47;;;;;;;1.10;0.50;;;;;;;20.70;49.03;99746.44;4958036;28;20586;-74
2023/09/23 08:39:12;;;;;;;1.08;0.50;;;;;;;20.70;48.94;99751.72;4961464;28;20114;-74
2023/09/23 08:41:39;;;;;;;0.75;0.50;;;;;;;20.71;48.87;99764.03;4956096;29;20484;-74
2023/09/23 08:44:05;;;;;;;1.88;0.70;;;;;;;20.71;49.08;99764.03;4955961;29;20054;-74
2023/09/23 08:46:31;;;;;;;1.63;0.32;;;;;;;20.71;49.06;99769.34;4955981;29;20032;-74
2023/09/23 08:49:00;;;;;;;1.20;0.50;;;;;;;20.75;48.94;99765.59;4955742;29;20135;-74
2023/09/23 08:51:27;;;;;;;2.25;0.68;;;;;;;20.77;48.73;99779.59;4966451;28;20102;-74
2023/09/23 08:53:54;;;;;;;2.33;0.70;;;;;;;20.77;49.00;99780.47;4975203;28;20491;-74
2023/09/23 08:56:20;;;;;;;1.73;0.80;;;;;;;20.77;48.99;99792.88;4975194;28;20030;-74
2023/09/23 08:58:48;;;;;;;2.20;0.50;;;;;;;20.78;48.92;99786.66;4975171;28;20019;-74
2023/09/23 09:01:15;;;;;;;3.10;0.70;;;;;;;20.79;48.95;99793.66;4973034;28;20143;-74
2023/09/23 09:03:41;;;;;;;1.20;0.52;;;;;;;20.78;49.00;99784.84;4955030;28;20023;-74
2023/09/23 09:06:21;;;;;;;1.92;0.70;;;;;;;20.79;48.87;99799.81;4954884;29;20026;-74
2023/09/23 09:08:47;;;;;;;2.15;0.70;;;;;;;20.81;48.87;99797.06;4956123;29;20507;-75
2023/09/23 09:11:20;;;;;;;1.17;0.45;;;;;;;20.78;49.12;99808.72;4957116;29;20027;-74
2023/09/23 09:13:46;;;;;;;2.13;0.38;;;;;;;20.81;48.97;99791.78;4963911;28;20373;-74
2023/09/23 09:16:11;;;;;;;1.15;0.50;;;;;;;20.80;48.79;99805.97;4975134;28;20041;-74
2023/09/23 09:18:37;;;;;;;1.20;0.60;;;;;;;20.83;49.01;99804.97;4958295;28;20023;-75
2023/09/23 09:21:08;;;;;;;1.70;0.50;;;;;;;20.85;48.98;99811.06;4955495;29;20079;-74
2023/09/23 09:23:33;;;;;;;2.25;0.80;;;;;;;20.86;48.94;99805.66;4955414;29;20023;-74
2023/09/23 09:25:59;;;;;;;2.17;0.60;;;;;;;20.87;49.18;99807.38;4955475;29;20035;-74
2023/09/23 09:28:25;;;;;;;2.08;0.63;;;;;;;20.85;48.80;99803.97;4955246;29;20380;-74
2023/09/23 09:30:57;;;;;;;1.60;0.70;;;;;;;20.87;49.00;99802.06;4944524;28;20027;-75
2023/09/23 09:33:29;;;;;;;2.40;0.75;;;;;;;20.88;48.97;99803.78;4974340;28;20033;-74
2023/09/23 09:35:55;;;;;;;1.60;0.50;;;;;;;20.86;49.02;99812.75;4974434;28;20041;-74
2023/09/23 09:38:25;;;;;;;1.55;0.50;;;;;;;20.85;49.25;99814.56;4949110;29;20053;-74
2023/09/23 09:41:00;;;;;;;1.33;0.65;;;;;;;20.85;49.28;99809.28;4955143;29;20506;-75
2023/09/23 09:43:26;;;;;;;2.72;0.70;;;;;;;20.88;49.38;99813.56;4937932;29;20032;-74
2023/09/23 09:45:54;;;;;;;1.48;0.45;;;;;;;20.89;48.97;99810.81;4954518;29;20562;-74
2023/09/23 09:48:22;;;;;;;2.10;0.70;;;;;;;20.90;49.09;99817.84;4954775;29;20030;-74
2023/09/23 09:50:50;;;;;;;1.70;0.50;;;;;;;20.91;48.90;99814.22;4956049;28;20041;-74
2023/09/23 09:53:18;;;;;;;1.48;0.50;;;;;;;20.95;48.81;99816.69;4945040;29;20023;-74
2023/09/23 09:55:46;;;;;;;2.30;0.80;;;;;;;20.95;49.02;99814.03;4964494;28;20053;-75
2023/09/23 09:58:12;;;;;;;2.40;0.80;;;;;;;20.95;49.06;99808.75;4958015;28;20500;-74
2023/09/23 10:00:42;;;;;;;2.22;0.55;;;;;;;20.96;48.92;99815.78;4954659;29;20106;-74
2023/09/23 10:03:11;;;;;;;1.63;0.60;;;;;;;20.97;48.98;99812.19;4954635;29;20106;-74
2023/09/23 10:05:49;;;;;;;2.25;0.85;;;;;;;20.98;48.96;99803.28;4973527;28;20069;-74
2023/09/23 10:08:19;;;;;;;2.88;0.73;;;;;;;20.97;48.84;99801.56;4973725;28;20023;-74
2023/09/23 10:10:49;;;;;;;2.13;0.70;;;;;;;21.00;48.95;99801.38;4973948;28;20035;-75
2023/09/23 10:13:22;;;;;;;2.80;0.70;;;;;;;20.99;49.02;99802.34;4973839;28;20093;-74
2023/09/23 10:15:48;;;;;;;2.28;0.63;;;;;;;21.02;48.82;99794.22;4973255;28;20548;-74
2023/09/23 10:18:16;;;;;;;1.67;0.75;;;;;;;21.02;48.93;99797.72;4962487;28;20109;-74
2023/09/23 10:20:48;;;;;;;1.40;0.52;;;;;;;21.05;48.93;99804.66;4954503;29;20038;-74
2023/09/23 10:23:15;;;;;;;1.75;0.60;;;;;;;21.03;48.93;99791.47;4950921;29;20113;-74
2023/09/23 10:25:43;;;;;;;2.67;0.60;;;;;;;21.04;48.92;99798.50;4954203;29;20444;-75
2023/09/23 10:28:30;;;;;;;2.08;0.80;;;;;;;21.04;48.79;99798.50;4954288;28;20031;-74
2023/09/23 10:31:06;;;;;;;2.83;1.00;;;;;;;21.05;48.94;99794.03;4949028;29;20027;-75
2023/09/23 10:33:34;;;;;;;4.43;0.77;;;;;;;21.06;48.93;99793.09;4954236;29;20036;-74
2023/09/23 10:36:01;;;;;;;2.17;0.70;;;;;;;21.06;48.86;99791.31;4953849;29;20142;-74
2023/09/23 10:38:34;;;;;;;2.97;1.02;;;;;;;21.09;48.93;99800.03;4954023;28;20043;-74
2023/09/23 10:41:01;;;;;;;1.52;0.55;;;;;;;21.09;48.86;99795.56;4954225;29;20023;-74
2023/09/23 10:43:27;;;;;;;2.08;0.60;;;;;;;21.10;48.84;99801.75;4936904;29;20027;-74
2023/09/23 10:45:54;;;;;;;1.80;0.55;;;;;;;21.10;48.97;99799.94;4953684;29;20432;-74
2023/09/23 10:48:20;;;;;;;2.53;0.73;;;;;;;21.10;48.75;99797.28;4954204;28;20106;-74
2023/09/23 10:50:46;;;;;;;1.70;0.50;;;;;;;21.11;48.88;99793.69;4973380;28;20022;-74
2023/09/23 10:53:13;;;;;;;2.17;0.60;;;;;;;21.11;48.91;99796.34;4973413;28;20062;-74
2023/09/23 10:55:39;;;;;;;1.88;0.70;;;;;;;21.11;48.84;99793.69;4946754;29;20034;-75
2023/09/23 10:58:06;;;;;;;1.80;0.63;;;;;;;21.12;48.91;99797.22;4954152;28;20387;-73
2023/09/23 11:00:33;;;;;;;1.63;0.63;;;;;;;21.13;48.76;99802.44;4953681;28;20109;-74
2023/09/23 11:03:10;;;;;;;1.95;0.70;;;;;;;21.13;48.81;99796.25;4954148;28;20024;-75
2023/09/23 11:05:38;;;;;;;2.55;0.95;;;;;;;21.14;48.83;99793.53;4945153;29;20027;-74
2023/09/23 11:08:10;;;;;;;3.20;0.90;;;;;;;21.15;48.90;99784.63;4954063;28;20023;-74
2023/09/23 11:10:44;;;;;;;1.08;0.57;;;;;;;21.15;48.88;99781.09;4969454;28;20045;-74
2023/09/23 11:13:11;;;;;;;1.67;0.70;;;;;;;21.15;48.95;99781.09;4953769;29;20516;-74
2023/09/23 11:15:38;;;;;;;1.52;0.50;;;;;;;21.16;48.63;99780.19;4953529;29;20110;-74
2023/09/23 11:18:07;;;;;;;2.05;0.77;;;;;;;21.16;48.90;99785.50;4953828;29;20031;-75
2023/09/23 11:20:34;;;;;;;1.98;0.70;;;;;;;21.16;48.73;99788.97;4953985;29;20027;-74
2023/09/23 11:23:05;;;;;;;1.88;0.70;;;;;;;21.18;48.95;99788.91;4953801;29;20035;-74
2023/09/23 11:25:34;;;;;;;3.60;0.90;;;;;;;21.17;48.80;99782.72;4953958;29;20510;-74
2023/09/23 11:28:00;;;;;;;3.08;0.70;;;;;;;21.18;48.65;99792.41;4954502;28;20039;-74
2023/09/23 11:30:25;;;;;;;2.38;0.93;;;;;;;21.19;48.79;99796.78;4969702;28;20023;-74
2023/09/23 11:32:52;;;;;;;2.25;0.70;;;;;;;21.19;48.81;99791.47;4960961;28;20372;-75